sensor_id;sensor_type;location;lat;lon;timestamp;P1;durP1;ratioP1;P2;durP2;ratioP2
52208;SDS011;38507;53.132;6.394;2023-03-21T00:02:01;25.75;;;13.00;;
52208;SDS011;38507;53.132;6.394;2023-03-21T00:04:27;27.05;;;13.70;;
52208;SDS011;38507;53.132;6.394;2023-03-21T00:06:52;29.60;;;13.80;;
52208;SDS011;38507;53.132;6.394;2023-03-21T00:09:18;27.25;;;14.00;;
52208;SDS011;38507;53.132;6.394;2023-03-21T00:11:45;26.63;;;12.88;;
52208;SDS011;38507;53.132;6.394;2023-03-21T00:14:11;29.33;;;14.02;;
52208;SDS011;38507;53.132;6.394;2023-03-21T00:16:39;36.80;;;14.10;;
52208;SDS011;38507;53.132;6.394;2023-03-21T00:19:05;35.22;;;14.27;;
52208;SDS011;38507;53.132;6.394;2023-03-21T00:21:31;41.47;;;15.00;;
52208;SDS011;38507;53.132;6.394;2023-03-21T00:23:58;51.45;;;16.05;;
52208;SDS011;38507;53.132;6.394;2023-03-21T00:26:25;59.80;;;17.08;;
52208;SDS011;38507;53.132;6.394;2023-03-21T00:28:51;65.07;;;19.10;;
52208;SDS011;38507;53.132;6.394;2023-03-21T00:31:16;74.28;;;19.20;;
52208;SDS011;38507;53.132;6.394;2023-03-21T00:33:42;74.70;;;22.13;;
52208;SDS011;38507;53.132;6.394;2023-03-21T00:36:09;77.05;;;20.80;;
52208;SDS011;38507;53.132;6.394;2023-03-21T00:38:35;83.50;;;21.17;;
52208;SDS011;38507;53.132;6.394;2023-03-21T00:41:05;82.50;;;21.40;;
52208;SDS011;38507;53.132;6.394;2023-03-21T00:43:32;91.30;;;20.95;;
52208;SDS011;38507;53.132;6.394;2023-03-21T00:45:58;96.82;;;22.73;;
52208;SDS011;38507;53.132;6.394;2023-03-21T00:48:24;106.88;;;23.50;;
52208;SDS011;38507;53.132;6.394;2023-03-21T00:50:52;89.53;;;22.20;;
52208;SDS011;38507;53.132;6.394;2023-03-21T00:53:19;83.38;;;20.20;;
52208;SDS011;38507;53.132;6.394;2023-03-21T00:55:45;109.57;;;23.55;;
52208;SDS011;38507;53.132;6.394;2023-03-21T00:58:11;77.60;;;21.67;;
52208;SDS011;38507;53.132;6.394;2023-03-21T01:00:37;84.63;;;22.35;;
52208;SDS011;38507;53.132;6.394;2023-03-21T01:03:04;91.25;;;23.17;;
52208;SDS011;38507;53.132;6.394;2023-03-21T01:05:34;81.53;;;22.52;;
52208;SDS011;38507;53.132;6.394;2023-03-21T01:08:21;91.20;;;23.40;;
52208;SDS011;38507;53.132;6.394;2023-03-21T01:10:48;75.00;;;21.65;;
52208;SDS011;38507;53.132;6.394;2023-03-21T01:13:15;81.88;;;22.70;;
52208;SDS011;38507;53.132;6.394;2023-03-21T01:15:50;65.85;;;20.65;;
52208;SDS011;38507;53.132;6.394;2023-03-21T01:18:19;66.63;;;21.52;;
52208;SDS011;38507;53.132;6.394;2023-03-21T01:20:46;51.28;;;18.20;;
52208;SDS011;38507;53.132;6.394;2023-03-21T01:23:12;47.53;;;18.25;;
52208;SDS011;38507;53.132;6.394;2023-03-21T01:25:39;47.38;;;16.65;;
52208;SDS011;38507;53.132;6.394;2023-03-21T01:28:05;41.05;;;16.42;;
52208;SDS011;38507;53.132;6.394;2023-03-21T01:30:32;55.35;;;19.15;;
52208;SDS011;38507;53.132;6.394;2023-03-21T01:32:58;59.47;;;18.58;;
52208;SDS011;38507;53.132;6.394;2023-03-21T01:35:23;47.55;;;18.17;;
52208;SDS011;38507;53.132;6.394;2023-03-21T01:37:49;50.65;;;18.30;;
52208;SDS011;38507;53.132;6.394;2023-03-21T01:40:33;56.85;;;20.05;;
52208;SDS011;38507;53.132;6.394;2023-03-21T01:42:59;50.97;;;17.75;;
52208;SDS011;38507;53.132;6.394;2023-03-21T01:48:28;48.88;;;19.08;;
52208;SDS011;38507;53.132;6.394;2023-03-21T01:50:54;44.47;;;18.25;;
52208;SDS011;38507;53.132;6.394;2023-03-21T01:53:22;44.55;;;17.88;;
52208;SDS011;38507;53.132;6.394;2023-03-21T01:56:02;46.33;;;18.60;;
52208;SDS011;38507;53.132;6.394;2023-03-21T01:58:32;45.13;;;17.88;;
52208;SDS011;38507;53.132;6.394;2023-03-21T02:00:58;43.20;;;19.23;;
52208;SDS011;38507;53.132;6.394;2023-03-21T02:03:26;47.80;;;20.27;;
52208;SDS011;38507;53.132;6.394;2023-03-21T02:06:00;42.45;;;18.10;;
52208;SDS011;38507;53.132;6.394;2023-03-21T02:10:54;35.15;;;17.88;;
52208;SDS011;38507;53.132;6.394;2023-03-21T02:13:20;38.60;;;18.95;;
52208;SDS011;38507;53.132;6.394;2023-03-21T02:19:07;38.28;;;18.52;;
52208;SDS011;38507;53.132;6.394;2023-03-21T02:24:33;39.37;;;18.07;;
52208;SDS011;38507;53.132;6.394;2023-03-21T02:27:20;33.90;;;18.02;;
52208;SDS011;38507;53.132;6.394;2023-03-21T02:46:58;30.48;;;16.75;;
52208;SDS011;38507;53.132;6.394;2023-03-21T02:49:30;30.13;;;17.33;;
52208;SDS011;38507;53.132;6.394;2023-03-21T02:52:36;29.42;;;16.80;;
52208;SDS011;38507;53.132;6.394;2023-03-21T02:55:03;27.98;;;16.58;;
52208;SDS011;38507;53.132;6.394;2023-03-21T02:57:37;30.65;;;17.33;;
52208;SDS011;38507;53.132;6.394;2023-03-21T03:00:06;30.77;;;17.70;;
52208;SDS011;38507;53.132;6.394;2023-03-21T03:02:36;28.83;;;16.88;;
52208;SDS011;38507;53.132;6.394;2023-03-21T03:05:11;30.05;;;18.75;;
52208;SDS011;38507;53.132;6.394;2023-03-21T03:07:55;27.80;;;16.63;;
52208;SDS011;38507;53.132;6.394;2023-03-21T03:21:40;33.38;;;17.58;;
52208;SDS011;38507;53.132;6.394;2023-03-21T03:23:58;27.48;;;17.40;;
52208;SDS011;38507;53.132;6.394;2023-03-21T03:26:42;28.35;;;16.90;;
52208;SDS011;38507;53.132;6.394;2023-03-21T03:29:12;28.63;;;17.38;;
52208;SDS011;38507;53.132;6.394;2023-03-21T03:31:45;26.55;;;17.05;;
52208;SDS011;38507;53.132;6.394;2023-03-21T03:34:16;25.92;;;16.35;;
52208;SDS011;38507;53.132;6.394;2023-03-21T03:36:48;29.73;;;16.25;;
52208;SDS011;38507;53.132;6.394;2023-03-21T03:39:20;31.63;;;17.27;;
52208;SDS011;38507;53.132;6.394;2023-03-21T03:41:58;27.67;;;15.63;;
52208;SDS011;38507;53.132;6.394;2023-03-21T03:44:28;28.02;;;16.10;;
52208;SDS011;38507;53.132;6.394;2023-03-21T03:46:58;31.58;;;15.52;;
52208;SDS011;38507;53.132;6.394;2023-03-21T03:49:29;32.88;;;15.82;;
52208;SDS011;38507;53.132;6.394;2023-03-21T03:52:08;27.50;;;14.98;;
52208;SDS011;38507;53.132;6.394;2023-03-21T03:54:42;27.35;;;14.85;;
52208;SDS011;38507;53.132;6.394;2023-03-21T03:57:10;29.52;;;15.80;;
52208;SDS011;38507;53.132;6.394;2023-03-21T03:59:38;27.70;;;15.93;;
52208;SDS011;38507;53.132;6.394;2023-03-21T04:02:07;30.00;;;15.05;;
52208;SDS011;38507;53.132;6.394;2023-03-21T04:04:33;33.13;;;16.15;;
52208;SDS011;38507;53.132;6.394;2023-03-21T04:06:59;29.48;;;14.07;;
52208;SDS011;38507;53.132;6.394;2023-03-21T04:09:27;32.65;;;15.57;;
52208;SDS011;38507;53.132;6.394;2023-03-21T04:11:54;23.75;;;12.32;;
52208;SDS011;38507;53.132;6.394;2023-03-21T04:14:20;29.05;;;15.23;;
52208;SDS011;38507;53.132;6.394;2023-03-21T04:16:46;28.42;;;13.13;;
52208;SDS011;38507;53.132;6.394;2023-03-21T04:19:13;31.25;;;14.15;;
52208;SDS011;38507;53.132;6.394;2023-03-21T04:21:39;30.38;;;14.35;;
52208;SDS011;38507;53.132;6.394;2023-03-21T04:24:05;24.48;;;12.77;;
52208;SDS011;38507;53.132;6.394;2023-03-21T04:26:32;24.50;;;12.55;;
52208;SDS011;38507;53.132;6.394;2023-03-21T04:28:59;31.60;;;13.07;;
52208;SDS011;38507;53.132;6.394;2023-03-21T04:31:25;26.00;;;13.02;;
52208;SDS011;38507;53.132;6.394;2023-03-21T04:33:52;25.95;;;12.75;;
52208;SDS011;38507;53.132;6.394;2023-03-21T04:36:20;25.90;;;13.13;;
52208;SDS011;38507;53.132;6.394;2023-03-21T04:38:55;24.20;;;13.05;;
52208;SDS011;38507;53.132;6.394;2023-03-21T04:41:27;29.63;;;12.93;;
52208;SDS011;38507;53.132;6.394;2023-03-21T04:43:54;26.65;;;12.57;;
52208;SDS011;38507;53.132;6.394;2023-03-21T04:46:20;27.60;;;13.23;;
52208;SDS011;38507;53.132;6.394;2023-03-21T04:48:46;27.40;;;12.80;;
52208;SDS011;38507;53.132;6.394;2023-03-21T04:51:13;28.02;;;13.55;;
52208;SDS011;38507;53.132;6.394;2023-03-21T04:53:41;28.58;;;13.40;;
52208;SDS011;38507;53.132;6.394;2023-03-21T04:56:10;29.98;;;14.00;;
52208;SDS011;38507;53.132;6.394;2023-03-21T04:58:36;31.05;;;14.77;;
52208;SDS011;38507;53.132;6.394;2023-03-21T05:01:02;29.75;;;13.77;;
52208;SDS011;38507;53.132;6.394;2023-03-21T05:03:30;29.23;;;14.90;;
52208;SDS011;38507;53.132;6.394;2023-03-21T05:06:01;33.83;;;15.38;;
52208;SDS011;38507;53.132;6.394;2023-03-21T05:08:27;30.10;;;15.05;;
52208;SDS011;38507;53.132;6.394;2023-03-21T05:10:53;33.00;;;15.60;;
52208;SDS011;38507;53.132;6.394;2023-03-21T05:13:18;35.60;;;16.35;;
52208;SDS011;38507;53.132;6.394;2023-03-21T05:15:44;32.05;;;16.20;;
52208;SDS011;38507;53.132;6.394;2023-03-21T05:18:10;35.63;;;16.35;;
52208;SDS011;38507;53.132;6.394;2023-03-21T05:20:39;35.25;;;17.33;;
52208;SDS011;38507;53.132;6.394;2023-03-21T05:23:09;32.42;;;15.40;;
52208;SDS011;38507;53.132;6.394;2023-03-21T05:25:38;33.03;;;16.20;;
52208;SDS011;38507;53.132;6.394;2023-03-21T05:28:05;31.77;;;16.75;;
52208;SDS011;38507;53.132;6.394;2023-03-21T05:30:32;30.95;;;16.08;;
52208;SDS011;38507;53.132;6.394;2023-03-21T05:32:58;33.67;;;16.35;;
52208;SDS011;38507;53.132;6.394;2023-03-21T05:35:24;31.70;;;17.20;;
52208;SDS011;38507;53.132;6.394;2023-03-21T05:37:50;32.03;;;15.30;;
52208;SDS011;38507;53.132;6.394;2023-03-21T05:40:17;30.40;;;16.20;;
52208;SDS011;38507;53.132;6.394;2023-03-21T05:42:44;30.02;;;15.60;;
52208;SDS011;38507;53.132;6.394;2023-03-21T05:45:11;27.35;;;15.15;;
52208;SDS011;38507;53.132;6.394;2023-03-21T05:47:37;31.55;;;15.23;;
52208;SDS011;38507;53.132;6.394;2023-03-21T05:50:03;33.28;;;15.50;;
52208;SDS011;38507;53.132;6.394;2023-03-21T05:52:29;28.70;;;15.00;;
52208;SDS011;38507;53.132;6.394;2023-03-21T05:54:55;31.15;;;13.82;;
52208;SDS011;38507;53.132;6.394;2023-03-21T05:57:21;24.33;;;13.57;;
52208;SDS011;38507;53.132;6.394;2023-03-21T05:59:47;23.48;;;13.02;;
52208;SDS011;38507;53.132;6.394;2023-03-21T06:02:13;24.92;;;13.38;;
52208;SDS011;38507;53.132;6.394;2023-03-21T06:04:38;28.27;;;14.60;;
52208;SDS011;38507;53.132;6.394;2023-03-21T06:07:04;23.90;;;13.63;;
52208;SDS011;38507;53.132;6.394;2023-03-21T06:09:30;21.55;;;12.88;;
52208;SDS011;38507;53.132;6.394;2023-03-21T06:11:55;23.08;;;12.50;;
52208;SDS011;38507;53.132;6.394;2023-03-21T06:14:22;23.40;;;12.50;;
52208;SDS011;38507;53.132;6.394;2023-03-21T06:16:48;22.42;;;13.75;;
52208;SDS011;38507;53.132;6.394;2023-03-21T06:19:14;21.25;;;12.60;;
52208;SDS011;38507;53.132;6.394;2023-03-21T06:21:40;24.88;;;13.50;;
52208;SDS011;38507;53.132;6.394;2023-03-21T06:24:07;23.80;;;14.05;;
52208;SDS011;38507;53.132;6.394;2023-03-21T06:26:32;25.77;;;14.50;;
52208;SDS011;38507;53.132;6.394;2023-03-21T06:28:58;27.48;;;15.10;;
52208;SDS011;38507;53.132;6.394;2023-03-21T06:31:24;26.58;;;16.02;;
52208;SDS011;38507;53.132;6.394;2023-03-21T06:33:50;25.00;;;15.77;;
52208;SDS011;38507;53.132;6.394;2023-03-21T06:36:17;23.98;;;14.32;;
52208;SDS011;38507;53.132;6.394;2023-03-21T06:38:43;29.00;;;16.00;;
52208;SDS011;38507;53.132;6.394;2023-03-21T06:41:10;27.30;;;14.40;;
52208;SDS011;38507;53.132;6.394;2023-03-21T06:43:37;29.42;;;16.20;;
52208;SDS011;38507;53.132;6.394;2023-03-21T06:46:03;23.77;;;14.68;;
52208;SDS011;38507;53.132;6.394;2023-03-21T06:48:29;28.77;;;15.18;;
52208;SDS011;38507;53.132;6.394;2023-03-21T06:50:55;27.52;;;16.00;;
52208;SDS011;38507;53.132;6.394;2023-03-21T06:53:21;28.55;;;16.10;;
52208;SDS011;38507;53.132;6.394;2023-03-21T06:55:52;26.02;;;15.30;;
52208;SDS011;38507;53.132;6.394;2023-03-21T06:58:18;25.15;;;14.30;;
52208;SDS011;38507;53.132;6.394;2023-03-21T07:00:45;27.23;;;15.68;;
52208;SDS011;38507;53.132;6.394;2023-03-21T07:03:11;24.90;;;15.48;;
52208;SDS011;38507;53.132;6.394;2023-03-21T07:05:37;25.15;;;15.40;;
52208;SDS011;38507;53.132;6.394;2023-03-21T07:08:04;26.00;;;15.77;;
52208;SDS011;38507;53.132;6.394;2023-03-21T07:10:36;26.38;;;15.77;;
52208;SDS011;38507;53.132;6.394;2023-03-21T07:13:03;25.23;;;14.93;;
52208;SDS011;38507;53.132;6.394;2023-03-21T07:15:29;26.83;;;15.70;;
52208;SDS011;38507;53.132;6.394;2023-03-21T07:17:55;21.67;;;14.05;;
52208;SDS011;38507;53.132;6.394;2023-03-21T07:20:21;22.58;;;14.02;;
52208;SDS011;38507;53.132;6.394;2023-03-21T07:22:46;20.67;;;13.25;;
52208;SDS011;38507;53.132;6.394;2023-03-21T07:25:12;19.75;;;11.90;;
52208;SDS011;38507;53.132;6.394;2023-03-21T07:27:38;20.63;;;12.13;;
52208;SDS011;38507;53.132;6.394;2023-03-21T07:30:04;18.20;;;12.43;;
52208;SDS011;38507;53.132;6.394;2023-03-21T07:32:34;17.17;;;11.32;;
52208;SDS011;38507;53.132;6.394;2023-03-21T07:35:02;18.13;;;11.20;;
52208;SDS011;38507;53.132;6.394;2023-03-21T07:37:27;16.45;;;11.38;;
52208;SDS011;38507;53.132;6.394;2023-03-21T07:39:53;16.50;;;10.82;;
52208;SDS011;38507;53.132;6.394;2023-03-21T07:42:19;15.73;;;10.52;;
52208;SDS011;38507;53.132;6.394;2023-03-21T07:44:45;14.82;;;9.77;;
52208;SDS011;38507;53.132;6.394;2023-03-21T07:47:11;15.82;;;10.43;;
52208;SDS011;38507;53.132;6.394;2023-03-21T07:49:36;14.13;;;9.45;;
52208;SDS011;38507;53.132;6.394;2023-03-21T07:52:02;16.38;;;9.90;;
52208;SDS011;38507;53.132;6.394;2023-03-21T07:54:29;14.65;;;9.80;;
52208;SDS011;38507;53.132;6.394;2023-03-21T07:56:55;13.02;;;8.90;;
52208;SDS011;38507;53.132;6.394;2023-03-21T07:59:21;13.82;;;9.18;;
52208;SDS011;38507;53.132;6.394;2023-03-21T08:01:47;13.10;;;9.27;;
52208;SDS011;38507;53.132;6.394;2023-03-21T08:04:13;15.18;;;9.90;;
52208;SDS011;38507;53.132;6.394;2023-03-21T08:06:39;13.48;;;9.23;;
52208;SDS011;38507;53.132;6.394;2023-03-21T08:09:05;12.38;;;8.88;;
52208;SDS011;38507;53.132;6.394;2023-03-21T08:11:31;11.88;;;8.80;;
52208;SDS011;38507;53.132;6.394;2023-03-21T08:13:57;11.98;;;8.18;;
52208;SDS011;38507;53.132;6.394;2023-03-21T08:16:23;11.13;;;8.18;;
52208;SDS011;38507;53.132;6.394;2023-03-21T08:18:49;11.35;;;8.15;;
52208;SDS011;38507;53.132;6.394;2023-03-21T08:21:14;10.75;;;7.43;;
52208;SDS011;38507;53.132;6.394;2023-03-21T08:23:40;10.32;;;7.65;;
52208;SDS011;38507;53.132;6.394;2023-03-21T08:26:06;10.48;;;7.60;;
52208;SDS011;38507;53.132;6.394;2023-03-21T08:28:32;10.90;;;7.93;;
52208;SDS011;38507;53.132;6.394;2023-03-21T08:30:57;14.43;;;7.95;;
52208;SDS011;38507;53.132;6.394;2023-03-21T08:33:23;10.07;;;7.38;;
52208;SDS011;38507;53.132;6.394;2023-03-21T08:35:49;8.57;;;6.15;;
52208;SDS011;38507;53.132;6.394;2023-03-21T08:38:14;9.20;;;6.63;;
52208;SDS011;38507;53.132;6.394;2023-03-21T08:40:40;9.48;;;6.80;;
52208;SDS011;38507;53.132;6.394;2023-03-21T08:43:06;11.02;;;6.57;;
52208;SDS011;38507;53.132;6.394;2023-03-21T08:45:32;8.65;;;6.43;;
52208;SDS011;38507;53.132;6.394;2023-03-21T08:47:58;9.57;;;6.22;;
52208;SDS011;38507;53.132;6.394;2023-03-21T08:50:25;11.20;;;6.28;;
52208;SDS011;38507;53.132;6.394;2023-03-21T08:52:53;14.15;;;7.70;;
52208;SDS011;38507;53.132;6.394;2023-03-21T08:55:19;12.82;;;8.68;;
52208;SDS011;38507;53.132;6.394;2023-03-21T08:57:44;17.70;;;9.25;;
52208;SDS011;38507;53.132;6.394;2023-03-21T09:00:12;14.55;;;8.55;;
52208;SDS011;38507;53.132;6.394;2023-03-21T09:02:42;12.48;;;9.20;;
52208;SDS011;38507;53.132;6.394;2023-03-21T09:05:09;14.63;;;9.18;;
52208;SDS011;38507;53.132;6.394;2023-03-21T09:07:39;14.68;;;9.98;;
52208;SDS011;38507;53.132;6.394;2023-03-21T09:10:06;20.73;;;10.75;;
52208;SDS011;38507;53.132;6.394;2023-03-21T09:12:34;18.40;;;11.35;;
52208;SDS011;38507;53.132;6.394;2023-03-21T09:15:00;19.73;;;12.60;;
52208;SDS011;38507;53.132;6.394;2023-03-21T09:17:27;21.50;;;13.13;;
52208;SDS011;38507;53.132;6.394;2023-03-21T09:19:53;22.20;;;13.40;;
52208;SDS011;38507;53.132;6.394;2023-03-21T09:22:19;23.95;;;14.48;;
52208;SDS011;38507;53.132;6.394;2023-03-21T09:24:45;22.55;;;14.10;;
52208;SDS011;38507;53.132;6.394;2023-03-21T09:27:15;18.02;;;12.93;;
52208;SDS011;38507;53.132;6.394;2023-03-21T09:29:47;20.55;;;13.35;;
52208;SDS011;38507;53.132;6.394;2023-03-21T09:32:14;21.33;;;14.73;;
52208;SDS011;38507;53.132;6.394;2023-03-21T09:34:42;19.35;;;13.15;;
52208;SDS011;38507;53.132;6.394;2023-03-21T09:37:08;26.20;;;14.57;;
52208;SDS011;38507;53.132;6.394;2023-03-21T09:39:37;24.65;;;15.70;;
52208;SDS011;38507;53.132;6.394;2023-03-21T09:45:21;24.27;;;15.57;;
52208;SDS011;38507;53.132;6.394;2023-03-21T09:47:55;24.35;;;16.90;;
52208;SDS011;38507;53.132;6.394;2023-03-21T09:50:27;24.55;;;16.85;;
52208;SDS011;38507;53.132;6.394;2023-03-21T09:52:59;25.90;;;16.92;;
52208;SDS011;38507;53.132;6.394;2023-03-21T09:55:45;26.83;;;16.73;;
52208;SDS011;38507;53.132;6.394;2023-03-21T10:01:27;29.30;;;17.35;;
52208;SDS011;38507;53.132;6.394;2023-03-21T10:03:59;25.35;;;15.95;;
52208;SDS011;38507;53.132;6.394;2023-03-21T10:06:28;31.58;;;16.67;;
52208;SDS011;38507;53.132;6.394;2023-03-21T10:09:05;28.95;;;16.90;;
52208;SDS011;38507;53.132;6.394;2023-03-21T10:11:42;25.88;;;16.20;;
52208;SDS011;38507;53.132;6.394;2023-03-21T10:14:20;30.77;;;17.27;;
52208;SDS011;38507;53.132;6.394;2023-03-21T10:17:24;30.38;;;16.10;;
52208;SDS011;38507;53.132;6.394;2023-03-21T10:22:38;25.73;;;16.45;;
52208;SDS011;38507;53.132;6.394;2023-03-21T10:25:05;28.17;;;15.27;;
52208;SDS011;38507;53.132;6.394;2023-03-21T10:27:32;25.17;;;14.63;;
52208;SDS011;38507;53.132;6.394;2023-03-21T10:30:01;25.63;;;14.88;;
52208;SDS011;38507;53.132;6.394;2023-03-21T10:32:29;31.77;;;14.32;;
52208;SDS011;38507;53.132;6.394;2023-03-21T10:34:55;26.92;;;15.50;;
52208;SDS011;38507;53.132;6.394;2023-03-21T10:37:22;28.77;;;17.02;;
52208;SDS011;38507;53.132;6.394;2023-03-21T10:39:50;24.35;;;15.30;;
52208;SDS011;38507;53.132;6.394;2023-03-21T10:42:19;29.15;;;14.07;;
52208;SDS011;38507;53.132;6.394;2023-03-21T10:44:48;32.88;;;16.65;;
52208;SDS011;38507;53.132;6.394;2023-03-21T10:47:25;29.17;;;15.55;;
52208;SDS011;38507;53.132;6.394;2023-03-21T10:49:54;28.20;;;15.57;;
52208;SDS011;38507;53.132;6.394;2023-03-21T10:52:26;24.40;;;15.00;;
52208;SDS011;38507;53.132;6.394;2023-03-21T10:55:03;25.48;;;14.88;;
52208;SDS011;38507;53.132;6.394;2023-03-21T10:57:58;25.00;;;14.15;;
52208;SDS011;38507;53.132;6.394;2023-03-21T11:00:29;23.73;;;13.60;;
52208;SDS011;38507;53.132;6.394;2023-03-21T11:03:01;24.65;;;12.70;;
52208;SDS011;38507;53.132;6.394;2023-03-21T11:05:34;22.08;;;12.20;;
52208;SDS011;38507;53.132;6.394;2023-03-21T11:08:08;22.77;;;13.00;;
52208;SDS011;38507;53.132;6.394;2023-03-21T11:10:37;21.60;;;12.07;;
52208;SDS011;38507;53.132;6.394;2023-03-21T11:13:25;23.63;;;12.80;;
52208;SDS011;38507;53.132;6.394;2023-03-21T11:15:58;22.52;;;12.35;;
52208;SDS011;38507;53.132;6.394;2023-03-21T11:18:35;20.52;;;11.18;;
52208;SDS011;38507;53.132;6.394;2023-03-21T11:21:06;20.38;;;11.23;;
52208;SDS011;38507;53.132;6.394;2023-03-21T11:23:37;16.40;;;10.65;;
52208;SDS011;38507;53.132;6.394;2023-03-21T11:26:08;20.05;;;10.77;;
52208;SDS011;38507;53.132;6.394;2023-03-21T11:28:37;20.85;;;10.40;;
52208;SDS011;38507;53.132;6.394;2023-03-21T11:31:05;17.05;;;9.88;;
52208;SDS011;38507;53.132;6.394;2023-03-21T11:33:34;22.70;;;9.63;;
52208;SDS011;38507;53.132;6.394;2023-03-21T11:38:33;17.73;;;9.98;;
52208;SDS011;38507;53.132;6.394;2023-03-21T11:41:02;22.17;;;9.48;;
52208;SDS011;38507;53.132;6.394;2023-03-21T11:43:29;17.85;;;9.77;;
52208;SDS011;38507;53.132;6.394;2023-03-21T11:45:57;18.02;;;9.57;;
52208;SDS011;38507;53.132;6.394;2023-03-21T11:48:40;19.35;;;10.13;;
52208;SDS011;38507;53.132;6.394;2023-03-21T11:54:18;16.98;;;9.48;;
52208;SDS011;38507;53.132;6.394;2023-03-21T11:57:10;14.70;;;9.20;;
52208;SDS011;38507;53.132;6.394;2023-03-21T12:00:03;22.38;;;10.05;;
52208;SDS011;38507;53.132;6.394;2023-03-21T12:02:47;16.70;;;9.82;;
52208;SDS011;38507;53.132;6.394;2023-03-21T12:05:36;16.05;;;9.63;;
52208;SDS011;38507;53.132;6.394;2023-03-21T12:10:50;18.85;;;9.45;;
52208;SDS011;38507;53.132;6.394;2023-03-21T12:24:40;18.27;;;8.90;;
52208;SDS011;38507;53.132;6.394;2023-03-21T12:30:30;19.75;;;9.40;;
52208;SDS011;38507;53.132;6.394;2023-03-21T12:41:44;16.98;;;8.63;;
52208;SDS011;38507;53.132;6.394;2023-03-21T12:44:33;17.08;;;8.63;;
52208;SDS011;38507;53.132;6.394;2023-03-21T12:47:07;16.52;;;8.07;;
52208;SDS011;38507;53.132;6.394;2023-03-21T12:50:38;18.25;;;9.30;;
52208;SDS011;38507;53.132;6.394;2023-03-21T12:52:36;20.58;;;8.60;;
52208;SDS011;38507;53.132;6.394;2023-03-21T12:55:22;17.38;;;8.05;;
52208;SDS011;38507;53.132;6.394;2023-03-21T12:57:55;14.85;;;8.05;;
52208;SDS011;38507;53.132;6.394;2023-03-21T13:00:34;14.40;;;8.18;;
52208;SDS011;38507;53.132;6.394;2023-03-21T13:03:09;17.45;;;8.38;;
52208;SDS011;38507;53.132;6.394;2023-03-21T13:05:45;16.75;;;8.30;;
52208;SDS011;38507;53.132;6.394;2023-03-21T13:08:20;19.15;;;8.32;;
52208;SDS011;38507;53.132;6.394;2023-03-21T13:10:47;20.23;;;7.90;;
52208;SDS011;38507;53.132;6.394;2023-03-21T13:32:43;16.88;;;8.13;;
52208;SDS011;38507;53.132;6.394;2023-03-21T13:35:13;16.80;;;8.43;;
52208;SDS011;38507;53.132;6.394;2023-03-21T13:38:15;14.98;;;7.78;;
52208;SDS011;38507;53.132;6.394;2023-03-21T13:40:59;16.10;;;7.60;;
52208;SDS011;38507;53.132;6.394;2023-03-21T13:59:11;18.85;;;8.73;;
52208;SDS011;38507;53.132;6.394;2023-03-21T14:01:57;19.38;;;9.10;;
52208;SDS011;38507;53.132;6.394;2023-03-21T14:04:41;16.92;;;8.82;;
52208;SDS011;38507;53.132;6.394;2023-03-21T14:09:43;15.60;;;9.05;;
52208;SDS011;38507;53.132;6.394;2023-03-21T14:12:18;19.08;;;9.55;;
52208;SDS011;38507;53.132;6.394;2023-03-21T14:15:02;17.98;;;9.60;;
52208;SDS011;38507;53.132;6.394;2023-03-21T14:17:33;17.42;;;9.38;;
52208;SDS011;38507;53.132;6.394;2023-03-21T14:25:00;21.13;;;9.07;;
52208;SDS011;38507;53.132;6.394;2023-03-21T14:27:28;17.17;;;9.50;;
52208;SDS011;38507;53.132;6.394;2023-03-21T14:29:57;15.68;;;8.77;;
52208;SDS011;38507;53.132;6.394;2023-03-21T14:32:24;18.60;;;9.82;;
52208;SDS011;38507;53.132;6.394;2023-03-21T14:34:52;21.13;;;9.50;;
52208;SDS011;38507;53.132;6.394;2023-03-21T14:37:26;18.08;;;9.20;;
52208;SDS011;38507;53.132;6.394;2023-03-21T14:39:57;16.60;;;8.98;;
52208;SDS011;38507;53.132;6.394;2023-03-21T14:42:25;16.10;;;10.05;;
52208;SDS011;38507;53.132;6.394;2023-03-21T14:44:52;19.05;;;8.88;;
52208;SDS011;38507;53.132;6.394;2023-03-21T14:47:24;17.30;;;10.02;;
52208;SDS011;38507;53.132;6.394;2023-03-21T14:49:52;17.15;;;8.73;;
52208;SDS011;38507;53.132;6.394;2023-03-21T14:52:20;17.40;;;9.63;;
52208;SDS011;38507;53.132;6.394;2023-03-21T14:54:57;18.35;;;9.07;;
52208;SDS011;38507;53.132;6.394;2023-03-21T14:57:26;16.40;;;9.60;;
52208;SDS011;38507;53.132;6.394;2023-03-21T14:59:55;16.90;;;9.77;;
52208;SDS011;38507;53.132;6.394;2023-03-21T15:02:26;22.42;;;9.68;;
52208;SDS011;38507;53.132;6.394;2023-03-21T15:04:56;26.15;;;8.75;;
52208;SDS011;38507;53.132;6.394;2023-03-21T15:07:25;20.50;;;8.85;;
52208;SDS011;38507;53.132;6.394;2023-03-21T15:10:08;16.83;;;9.15;;
52208;SDS011;38507;53.132;6.394;2023-03-21T15:12:54;16.63;;;9.90;;
52208;SDS011;38507;53.132;6.394;2023-03-21T15:15:22;15.63;;;9.23;;
52208;SDS011;38507;53.132;6.394;2023-03-21T15:17:49;15.35;;;9.68;;
52208;SDS011;38507;53.132;6.394;2023-03-21T15:20:18;13.32;;;9.18;;
52208;SDS011;38507;53.132;6.394;2023-03-21T15:22:49;18.23;;;9.40;;
52208;SDS011;38507;53.132;6.394;2023-03-21T15:25:20;15.52;;;9.27;;
52208;SDS011;38507;53.132;6.394;2023-03-21T15:27:50;19.08;;;9.75;;
52208;SDS011;38507;53.132;6.394;2023-03-21T15:30:24;13.82;;;9.45;;
52208;SDS011;38507;53.132;6.394;2023-03-21T15:32:54;16.17;;;9.90;;
52208;SDS011;38507;53.132;6.394;2023-03-21T15:35:24;18.17;;;10.98;;
52208;SDS011;38507;53.132;6.394;2023-03-21T15:37:59;19.02;;;10.45;;
52208;SDS011;38507;53.132;6.394;2023-03-21T15:40:27;25.42;;;10.98;;
52208;SDS011;38507;53.132;6.394;2023-03-21T15:43:04;15.45;;;9.90;;
52208;SDS011;38507;53.132;6.394;2023-03-21T15:45:31;20.35;;;11.00;;
52208;SDS011;38507;53.132;6.394;2023-03-21T15:48:01;19.52;;;10.60;;
52208;SDS011;38507;53.132;6.394;2023-03-21T15:53:06;16.50;;;10.48;;
52208;SDS011;38507;53.132;6.394;2023-03-21T15:55:42;17.60;;;10.30;;
52208;SDS011;38507;53.132;6.394;2023-03-21T15:58:17;16.63;;;10.45;;
52208;SDS011;38507;53.132;6.394;2023-03-21T16:00:48;20.98;;;10.18;;
52208;SDS011;38507;53.132;6.394;2023-03-21T16:03:20;15.32;;;10.05;;
52208;SDS011;38507;53.132;6.394;2023-03-21T16:08:37;15.68;;;10.75;;
52208;SDS011;38507;53.132;6.394;2023-03-21T16:11:18;18.55;;;10.77;;
52208;SDS011;38507;53.132;6.394;2023-03-21T16:13:47;21.08;;;10.98;;
52208;SDS011;38507;53.132;6.394;2023-03-21T16:16:23;18.02;;;10.38;;
52208;SDS011;38507;53.132;6.394;2023-03-21T16:18:50;21.80;;;11.05;;
52208;SDS011;38507;53.132;6.394;2023-03-21T16:21:19;16.35;;;9.75;;
52208;SDS011;38507;53.132;6.394;2023-03-21T16:23:47;18.60;;;10.48;;
52208;SDS011;38507;53.132;6.394;2023-03-21T16:26:18;17.85;;;9.43;;
52208;SDS011;38507;53.132;6.394;2023-03-21T16:28:46;17.42;;;9.35;;
52208;SDS011;38507;53.132;6.394;2023-03-21T16:31:14;25.35;;;10.98;;
52208;SDS011;38507;53.132;6.394;2023-03-21T16:33:41;18.73;;;10.60;;
52208;SDS011;38507;53.132;6.394;2023-03-21T16:36:11;21.13;;;11.68;;
52208;SDS011;38507;53.132;6.394;2023-03-21T16:38:41;19.40;;;12.77;;
52208;SDS011;38507;53.132;6.394;2023-03-21T16:41:11;20.10;;;13.05;;
52208;SDS011;38507;53.132;6.394;2023-03-21T16:43:38;20.52;;;12.85;;
52208;SDS011;38507;53.132;6.394;2023-03-21T16:46:23;20.42;;;13.07;;
52208;SDS011;38507;53.132;6.394;2023-03-21T16:48:51;19.02;;;12.80;;
52208;SDS011;38507;53.132;6.394;2023-03-21T16:51:22;28.20;;;14.00;;